Time;durP1;ratioP1;P1;durP2;ratioP2;P2;SDS_P1;SDS_P2;PMS_P1;PMS_P2;Temp;Humidity;BMP_temperature;BMP_pressure;BME280_temperature;BME280_humidity;BME280_pressure;Samples;Min_cycle;Max_cycle;Signal;HPM_P1;HPM_P2
2022/03/18 00:02:02;;;;;;;95.32;44.65;;;;;;;;;;5077235;28;20114;-44
2022/03/18 00:04:27;;;;;;;96.05;48.03;;;;;;;;;;5095491;28;20020;-43
2022/03/18 00:06:54;;;;;;;91.55;44.53;;;;;;;;;;5095470;28;20024;-43
2022/03/18 00:09:19;;;;;;;88.57;42.22;;;;;;;;;;5095362;28;20016;-44
2022/03/18 00:11:44;;;;;;;86.25;41.22;;;;;;;;;;5095338;28;20485;-43
2022/03/18 00:14:09;;;;;;;85.90;43.03;;;;;;;;;;5095343;28;20023;-43
2022/03/18 00:16:35;;;;;;;88.65;42.13;;;;;;;;;;5095003;28;20401;-47
2022/03/18 00:19:01;;;;;;;85.25;39.97;;;;;;;;;;5095364;28;20020;-45
2022/03/18 00:21:27;;;;;;;79.03;39.20;;;;;;;;;;5095297;28;20111;-46
2022/03/18 00:23:52;;;;;;;78.70;38.17;;;;;;;;;;5094994;28;20103;-46
2022/03/18 00:26:18;;;;;;;85.28;40.38;;;;;;;;;;5094915;28;20112;-42
2022/03/18 00:28:43;;;;;;;82.45;37.75;;;;;;;;;;5095039;28;20106;-43
2022/03/18 00:31:08;;;;;;;76.57;37.15;;;;;;;;;;5094735;28;20094;-44
2022/03/18 00:33:34;;;;;;;72.25;35.88;;;;;;;;;;5094873;28;20526;-43
2022/03/18 00:35:59;;;;;;;71.05;34.35;;;;;;;;;;5095180;28;20016;-46
2022/03/18 00:38:24;;;;;;;67.95;34.47;;;;;;;;;;5094931;28;20061;-42
2022/03/18 00:40:50;;;;;;;69.53;33.40;;;;;;;;;;5095012;28;20016;-44
2022/03/18 00:43:16;;;;;;;73.38;34.53;;;;;;;;;;5094635;28;20028;-45
2022/03/18 00:45:41;;;;;;;77.78;35.10;;;;;;;;;;5094325;28;20115;-42
2022/03/18 00:53:35;;;;;;;83.03;38.28;;;;;;;;;;5094665;28;20420;-43
2022/03/18 00:56:00;;;;;;;76.38;36.22;;;;;;;;;;5094407;28;20020;-42
2022/03/18 00:58:25;;;;;;;79.43;35.92;;;;;;;;;;5094217;28;20031;-42
2022/03/18 01:00:51;;;;;;;75.78;35.17;;;;;;;;;;5094816;28;20028;-44
2022/03/18 01:03:16;;;;;;;70.95;33.67;;;;;;;;;;5094330;28;20390;-44
2022/03/18 01:05:42;;;;;;;71.13;33.40;;;;;;;;;;5094113;28;20148;-44
2022/03/18 01:08:07;;;;;;;72.25;32.30;;;;;;;;;;5094200;28;20032;-45
2022/03/18 01:10:33;;;;;;;68.70;33.75;;;;;;;;;;5093397;28;20027;-43
2022/03/18 01:12:58;;;;;;;85.75;37.08;;;;;;;;;;5093923;28;20016;-46
2022/03/18 01:15:23;;;;;;;77.03;36.58;;;;;;;;;;5094263;28;20020;-43
2022/03/18 01:17:49;;;;;;;95.78;41.42;;;;;;;;;;5094178;28;20085;-45
2022/03/18 01:20:14;;;;;;;85.43;40.20;;;;;;;;;;5094008;28;20520;-44
2022/03/18 01:22:40;;;;;;;80.75;39.95;;;;;;;;;;5094018;28;20022;-44
2022/03/18 01:25:06;;;;;;;78.20;39.95;;;;;;;;;;5093734;28;20035;-43
2022/03/18 01:27:31;;;;;;;75.38;40.05;;;;;;;;;;5093640;28;20032;-43
2022/03/18 01:29:56;;;;;;;68.13;36.30;;;;;;;;;;5093720;28;20016;-44
2022/03/18 01:32:22;;;;;;;68.63;35.65;;;;;;;;;;5093446;28;20105;-44
2022/03/18 01:34:47;;;;;;;66.97;34.85;;;;;;;;;;5093886;28;20478;-45
2022/03/18 01:37:12;;;;;;;72.90;35.25;;;;;;;;;;5093741;28;20111;-43
2022/03/18 01:39:37;;;;;;;68.90;36.20;;;;;;;;;;5093661;28;20020;-43
2022/03/18 01:42:04;;;;;;;72.40;36.97;;;;;;;;;;5093726;28;20031;-43
2022/03/18 01:44:29;;;;;;;72.75;36.08;;;;;;;;;;5093372;28;20028;-46
2022/03/18 01:46:54;;;;;;;67.90;34.47;;;;;;;;;;5093602;28;20022;-44
2022/03/18 01:49:19;;;;;;;71.55;34.72;;;;;;;;;;5093648;28;20412;-44
2022/03/18 01:51:45;;;;;;;71.80;35.10;;;;;;;;;;5093557;28;20069;-43
2022/03/18 01:56:55;;;;;;;65.15;33.70;;;;;;;;;;5093260;28;20081;-45
2022/03/18 01:59:20;;;;;;;74.00;35.58;;;;;;;;;;5093658;28;20020;-45
2022/03/18 02:01:45;;;;;;;71.97;36.13;;;;;;;;;;5093566;28;20097;-44
2022/03/18 02:04:11;;;;;;;80.18;38.13;;;;;;;;;;5093090;28;20023;-43
2022/03/18 02:06:36;;;;;;;92.18;35.63;;;;;;;;;;5093292;28;20032;-43
2022/03/18 02:09:01;;;;;;;87.03;36.65;;;;;;;;;;5093209;28;20140;-44
2022/03/18 02:11:27;;;;;;;85.65;37.45;;;;;;;;;;5093113;28;20031;-43
2022/03/18 02:13:56;;;;;;;100.53;37.35;;;;;;;;;;5093361;28;20031;-43
2022/03/18 02:16:21;;;;;;;84.97;37.75;;;;;;;;;;5093504;28;20024;-42
2022/03/18 02:18:47;;;;;;;83.30;38.47;;;;;;;;;;5092990;28;20020;-43
2022/03/18 02:21:13;;;;;;;73.32;35.15;;;;;;;;;;5074739;28;20377;-44
2022/03/18 02:23:39;;;;;;;95.72;39.72;;;;;;;;;;5093189;28;20052;-45
2022/03/18 02:26:04;;;;;;;97.03;41.63;;;;;;;;;;5092750;28;20064;-42
2022/03/18 02:28:29;;;;;;;77.00;37.78;;;;;;;;;;5093370;28;20039;-44
2022/03/18 02:30:54;;;;;;;81.28;40.58;;;;;;;;;;5074789;28;20040;-43
2022/03/18 02:33:21;;;;;;;79.05;40.17;;;;;;;;;;5093241;28;20020;-42
2022/03/18 02:35:46;;;;;;;80.25;39.72;;;;;;;;;;5092995;28;20016;-44
2022/03/18 02:38:11;;;;;;;78.85;40.92;;;;;;;;;;5092927;28;20378;-43
2022/03/18 02:40:37;;;;;;;85.63;40.75;;;;;;;;;;5092578;28;20126;-45
2022/03/18 02:43:02;;;;;;;113.28;44.50;;;;;;;;;;5092728;28;20024;-45
2022/03/18 02:45:27;;;;;;;82.90;40.88;;;;;;;;;;5092896;28;20070;-42
2022/03/18 02:47:53;;;;;;;90.07;42.58;;;;;;;;;;5092792;28;20445;-43
2022/03/18 02:50:18;;;;;;;80.07;41.58;;;;;;;;;;5093259;28;20062;-42
2022/03/18 02:52:44;;;;;;;82.70;40.97;;;;;;;;;;5092801;28;20056;-43
2022/03/18 02:55:10;;;;;;;90.40;43.13;;;;;;;;;;5092652;28;20028;-45
2022/03/18 02:57:35;;;;;;;89.10;43.15;;;;;;;;;;5092554;28;20054;-44
2022/03/18 03:00:01;;;;;;;82.03;42.10;;;;;;;;;;5092799;28;20024;-44
2022/03/18 03:02:26;;;;;;;88.35;44.15;;;;;;;;;;5092697;28;20125;-43
2022/03/18 03:10:21;;;;;;;91.50;43.70;;;;;;;;;;5092616;28;20093;-42
2022/03/18 03:12:47;;;;;;;84.75;42.17;;;;;;;;;;5092765;28;20099;-45
2022/03/18 03:15:12;;;;;;;80.47;41.78;;;;;;;;;;5074336;28;20102;-46
2022/03/18 03:17:37;;;;;;;87.72;44.55;;;;;;;;;;5092620;28;20047;-42
2022/03/18 03:20:03;;;;;;;79.85;42.63;;;;;;;;;;5092548;28;20058;-44
2022/03/18 03:22:29;;;;;;;86.07;44.83;;;;;;;;;;5092407;28;20016;-42
2022/03/18 03:24:55;;;;;;;115.22;51.47;;;;;;;;;;5092362;28;20047;-43
2022/03/18 03:27:20;;;;;;;113.22;51.13;;;;;;;;;;5092490;28;20020;-42
2022/03/18 03:29:45;;;;;;;95.65;43.53;;;;;;;;;;5074705;28;20103;-44
2022/03/18 03:32:11;;;;;;;90.57;43.95;;;;;;;;;;5092768;28;20482;-42
2022/03/18 03:34:36;;;;;;;106.35;47.88;;;;;;;;;;5096156;28;20069;-42
2022/03/18 03:37:02;;;;;;;93.10;47.63;;;;;;;;;;5096446;28;20020;-46
2022/03/18 03:39:27;;;;;;;91.70;45.80;;;;;;;;;;5095867;28;20023;-41
2022/03/18 03:41:52;;;;;;;90.05;45.70;;;;;;;;;;5096100;28;20020;-43
2022/03/18 03:44:18;;;;;;;94.22;48.75;;;;;;;;;;5077770;28;20371;-42
2022/03/18 03:46:43;;;;;;;92.88;46.33;;;;;;;;;;5095851;28;20114;-42
2022/03/18 03:49:09;;;;;;;93.35;45.42;;;;;;;;;;5095834;28;20027;-43
2022/03/18 03:51:35;;;;;;;94.82;45.60;;;;;;;;;;5095623;28;20058;-42
2022/03/18 03:54:00;;;;;;;95.88;47.50;;;;;;;;;;5095574;28;20024;-43
2022/03/18 03:56:25;;;;;;;96.50;45.67;;;;;;;;;;5077706;28;20028;-41
2022/03/18 03:58:50;;;;;;;94.00;43.63;;;;;;;;;;5095656;28;20458;-41
2022/03/18 04:01:16;;;;;;;86.57;42.17;;;;;;;;;;5077365;28;20063;-41
2022/03/18 04:03:41;;;;;;;86.63;43.03;;;;;;;;;;5095451;28;20012;-42
2022/03/18 04:06:06;;;;;;;79.15;39.30;;;;;;;;;;5095389;28;20032;-42
2022/03/18 04:08:31;;;;;;;84.55;43.00;;;;;;;;;;5095153;28;20451;-42
2022/03/18 04:10:57;;;;;;;80.70;38.15;;;;;;;;;;5077491;28;20024;-42
2022/03/18 04:13:22;;;;;;;78.78;41.65;;;;;;;;;;5095366;28;20027;-42
2022/03/18 04:15:48;;;;;;;76.68;40.13;;;;;;;;;;5095411;28;20016;-41
2022/03/18 04:18:13;;;;;;;73.13;38.28;;;;;;;;;;5095286;28;20520;-41
2022/03/18 04:20:39;;;;;;;76.80;39.45;;;;;;;;;;5095262;28;20382;-41
2022/03/18 04:23:04;;;;;;;81.10;41.22;;;;;;;;;;5094947;28;20012;-42
2022/03/18 04:25:30;;;;;;;77.65;39.35;;;;;;;;;;5095109;28;20399;-41
2022/03/18 04:27:56;;;;;;;80.00;41.90;;;;;;;;;;5095051;28;20399;-43
2022/03/18 04:30:21;;;;;;;74.50;38.80;;;;;;;;;;5095179;28;20066;-42
2022/03/18 04:32:47;;;;;;;71.30;37.25;;;;;;;;;;5094592;28;20506;-43
2022/03/18 04:35:12;;;;;;;66.07;36.42;;;;;;;;;;5094977;28;20051;-46
2022/03/18 04:37:41;;;;;;;69.97;36.70;;;;;;;;;;5094933;28;20433;-43
2022/03/18 04:40:07;;;;;;;66.65;36.33;;;;;;;;;;5094702;28;20107;-42
2022/03/18 04:42:33;;;;;;;68.60;35.45;;;;;;;;;;5094909;28;20016;-42
2022/03/18 04:44:58;;;;;;;71.90;38.38;;;;;;;;;;5094702;28;20077;-42
2022/03/18 04:47:23;;;;;;;74.57;35.45;;;;;;;;;;5076410;28;20024;-43
2022/03/18 04:49:49;;;;;;;67.82;36.45;;;;;;;;;;5094604;28;20087;-42
2022/03/18 04:52:14;;;;;;;72.43;35.83;;;;;;;;;;5094452;28;20020;-44
2022/03/18 04:54:39;;;;;;;65.72;33.63;;;;;;;;;;5094402;28;20020;-45
2022/03/18 04:57:18;;;;;;;67.63;33.97;;;;;;;;;;5076552;28;20455;-44
2022/03/18 04:59:44;;;;;;;65.78;33.35;;;;;;;;;;5094057;28;20024;-43
2022/03/18 05:02:10;;;;;;;68.28;36.28;;;;;;;;;;5094399;28;20036;-44
2022/03/18 05:04:36;;;;;;;66.47;32.50;;;;;;;;;;5094269;28;20371;-43
2022/03/18 05:07:02;;;;;;;66.93;33.55;;;;;;;;;;5094094;28;20020;-43
2022/03/18 05:09:28;;;;;;;71.10;35.70;;;;;;;;;;5094129;28;20028;-43
2022/03/18 05:11:53;;;;;;;66.07;33.80;;;;;;;;;;5094443;28;20492;-43
2022/03/18 05:14:18;;;;;;;66.05;32.67;;;;;;;;;;5094212;28;20091;-43
2022/03/18 05:16:43;;;;;;;65.15;34.58;;;;;;;;;;5094116;28;20028;-43
2022/03/18 05:19:09;;;;;;;68.72;34.83;;;;;;;;;;5094019;28;20052;-45
2022/03/18 05:21:35;;;;;;;65.00;33.70;;;;;;;;;;5093787;28;20137;-44
2022/03/18 05:24:00;;;;;;;67.03;32.58;;;;;;;;;;5093869;28;20020;-43
2022/03/18 05:26:25;;;;;;;62.38;32.22;;;;;;;;;;5093915;28;20463;-44
2022/03/18 05:28:51;;;;;;;65.55;33.17;;;;;;;;;;5093932;28;20024;-45
2022/03/18 05:31:16;;;;;;;69.03;37.85;;;;;;;;;;5093732;28;20052;-44
2022/03/18 05:33:42;;;;;;;70.20;37.20;;;;;;;;;;5075462;28;20374;-43
2022/03/18 05:36:07;;;;;;;68.32;34.08;;;;;;;;;;5093647;28;20059;-41
2022/03/18 05:38:32;;;;;;;70.28;37.45;;;;;;;;;;5093639;28;20019;-41
2022/03/18 05:40:58;;;;;;;63.42;35.28;;;;;;;;;;5075668;28;20527;-42
2022/03/18 05:43:23;;;;;;;67.82;36.35;;;;;;;;;;5093528;28;20031;-41
2022/03/18 05:45:48;;;;;;;72.70;40.38;;;;;;;;;;5093568;28;20027;-41
2022/03/18 05:48:13;;;;;;;73.70;36.58;;;;;;;;;;5093525;28;20020;-41
2022/03/18 05:50:39;;;;;;;79.10;36.17;;;;;;;;;;5093510;28;20016;-41
2022/03/18 05:53:04;;;;;;;69.93;37.72;;;;;;;;;;5093195;28;20054;-41
2022/03/18 05:56:52;;;;;;;68.53;34.60;;;;;;;;;;5093261;28;20371;-41
2022/03/18 05:58:15;;;;;;;79.70;38.60;;;;;;;;;;5093010;28;20451;-42
2022/03/18 06:00:42;;;;;;;78.18;37.97;;;;;;;;;;5093257;28;20020;-41
2022/03/18 06:03:07;;;;;;;69.20;33.95;;;;;;;;;;5058417;28;20024;-41
2022/03/18 06:05:33;;;;;;;89.45;35.75;;;;;;;;;;5093004;28;20379;-41
2022/03/18 06:11:48;;;;;;;74.57;33.38;;;;;;;;;;5093259;28;20012;-40
2022/03/18 06:13:27;;;;;;;61.83;32.40;;;;;;;;;;5093111;28;20485;-40
2022/03/18 06:15:52;;;;;;;65.25;32.67;;;;;;;;;;5093329;28;20016;-41
2022/03/18 06:18:17;;;;;;;68.65;34.63;;;;;;;;;;5092863;28;20428;-40
2022/03/18 06:20:48;;;;;;;63.42;32.28;;;;;;;;;;5093117;28;20052;-41
2022/03/18 06:23:14;;;;;;;73.25;33.35;;;;;;;;;;5093386;28;20020;-40
2022/03/18 06:25:39;;;;;;;57.28;28.33;;;;;;;;;;5092931;28;20040;-40
2022/03/18 06:28:04;;;;;;;51.17;26.52;;;;;;;;;;5093285;28;20055;-41
2022/03/18 06:30:29;;;;;;;52.22;25.60;;;;;;;;;;5092885;28;20067;-43
2022/03/18 06:32:55;;;;;;;54.38;26.13;;;;;;;;;;5092933;28;20040;-40
2022/03/18 06:35:20;;;;;;;49.90;24.00;;;;;;;;;;5090115;28;20141;-41
2022/03/18 06:37:45;;;;;;;47.28;24.33;;;;;;;;;;5090442;28;20367;-40
2022/03/18 06:40:11;;;;;;;42.90;21.25;;;;;;;;;;5092101;28;20016;-41
2022/03/18 06:42:36;;;;;;;40.33;20.40;;;;;;;;;;5091902;28;20019;-41
2022/03/18 06:45:01;;;;;;;39.35;20.65;;;;;;;;;;5091821;28;20544;-41
2022/03/18 06:47:27;;;;;;;40.42;20.15;;;;;;;;;;5092621;28;20020;-41
2022/03/18 06:49:52;;;;;;;44.38;22.10;;;;;;;;;;5073717;28;20055;-41
2022/03/18 06:52:17;;;;;;;38.13;20.35;;;;;;;;;;5074596;28;20069;-41
2022/03/18 06:54:43;;;;;;;39.58;19.13;;;;;;;;;;5085064;28;20089;-41
2022/03/18 06:57:08;;;;;;;46.58;19.63;;;;;;;;;;5064814;28;20161;-43
2022/03/18 06:59:34;;;;;;;45.45;20.95;;;;;;;;;;5069515;28;20031;-40
2022/03/18 07:01:59;;;;;;;37.33;19.60;;;;;;;;;;5085720;28;20024;-40
2022/03/18 07:04:25;;;;;;;38.25;18.70;;;;;;;;;;5089205;28;20028;-40
2022/03/18 07:06:50;;;;;;;28.45;17.42;;;;;;;;;;5075345;28;20028;-41
2022/03/18 07:09:15;;;;;;;30.85;16.85;;;;;;;;;;5086514;28;20024;-40
2022/03/18 07:11:41;;;;;;;35.50;17.60;;;;;;;;;;5092648;28;20047;-40
2022/03/18 07:14:06;;;;;;;29.92;16.50;;;;;;;;;;5089927;28;20024;-40
2022/03/18 07:19:15;;;;;;;27.15;14.88;;;;;;;;;;5094302;28;20031;-40
2022/03/18 07:21:41;;;;;;;27.63;15.68;;;;;;;;;;5092867;28;20016;-40
2022/03/18 07:24:06;;;;;;;27.67;15.38;;;;;;;;;;5094434;28;20142;-40
2022/03/18 07:26:32;;;;;;;24.00;12.50;;;;;;;;;;5093004;28;20036;-39
2022/03/18 07:28:57;;;;;;;27.88;15.00;;;;;;;;;;5094282;28;20386;-41
2022/03/18 07:31:22;;;;;;;23.50;13.15;;;;;;;;;;5093469;28;20048;-41
2022/03/18 07:33:48;;;;;;;26.55;12.88;;;;;;;;;;5095208;28;20546;-41
2022/03/18 07:36:13;;;;;;;23.08;12.93;;;;;;;;;;5094297;28;20024;-40
2022/03/18 07:38:39;;;;;;;23.20;11.82;;;;;;;;;;5093237;28;20467;-42
2022/03/18 07:41:04;;;;;;;25.60;13.27;;;;;;;;;;5091564;28;20051;-41
2022/03/18 07:43:30;;;;;;;25.38;12.25;;;;;;;;;;5088778;28;20028;-42
2022/03/18 07:45:55;;;;;;;25.58;12.85;;;;;;;;;;5074737;28;20398;-43
2022/03/18 07:48:26;;;;;;;24.27;12.93;;;;;;;;;;5087347;28;20025;-40
2022/03/18 07:50:51;;;;;;;22.88;12.82;;;;;;;;;;5088781;28;20052;-39
2022/03/18 07:53:16;;;;;;;28.25;12.85;;;;;;;;;;5095033;28;20117;-38
2022/03/18 07:55:42;;;;;;;24.63;12.20;;;;;;;;;;5089315;28;20024;-41
2022/03/18 07:58:07;;;;;;;20.70;11.35;;;;;;;;;;5087060;28;20020;-42
2022/03/18 08:00:33;;;;;;;25.77;12.20;;;;;;;;;;5086792;28;20024;-44
2022/03/18 08:02:58;;;;;;;24.45;11.85;;;;;;;;;;5073447;28;20107;-41
2022/03/18 08:05:24;;;;;;;25.08;11.68;;;;;;;;;;5072402;28;20074;-41
2022/03/18 08:07:49;;;;;;;22.48;11.15;;;;;;;;;;5072897;28;20028;-41
2022/03/18 08:10:15;;;;;;;22.17;12.00;;;;;;;;;;5090244;28;20151;-40
2022/03/18 08:12:42;;;;;;;21.30;11.88;;;;;;;;;;5069710;28;20025;-40
2022/03/18 08:15:11;;;;;;;21.27;11.07;;;;;;;;;;5084195;28;20422;-44
2022/03/18 08:17:40;;;;;;;23.92;12.50;;;;;;;;;;5091541;28;20016;-40
2022/03/18 08:20:09;;;;;;;16.67;10.88;;;;;;;;;;5092057;28;20028;-40
2022/03/18 08:22:34;;;;;;;;;;;;;;;;;;5091493;28;20028;-43
2022/03/18 08:25:00;;;;;;;19.17;10.60;;;;;;;;;;5092019;28;20424;-41
2022/03/18 08:27:25;;;;;;;23.55;10.50;;;;;;;;;;5087014;28;20102;-42
2022/03/18 08:29:53;;;;;;;18.92;10.70;;;;;;;;;;5090241;28;20028;-39
2022/03/18 08:32:18;;;;;;;22.58;11.85;;;;;;;;;;5090817;28;20113;-40
2022/03/18 08:34:44;;;;;;;19.30;11.43;;;;;;;;;;5090931;28;20063;-40
2022/03/18 08:37:10;;;;;;;20.35;11.05;;;;;;;;;;5087715;28;20561;-41
2022/03/18 08:39:36;;;;;;;20.92;10.95;;;;;;;;;;5085668;28;20028;-40
2022/03/18 08:42:01;;;;;;;22.10;11.98;;;;;;;;;;5088726;28;20043;-40
2022/03/18 08:44:26;;;;;;;21.38;11.43;;;;;;;;;;5091394;28;20034;-40
2022/03/18 08:46:52;;;;;;;21.92;11.13;;;;;;;;;;5085880;28;20479;-40
2022/03/18 08:49:17;;;;;;;21.02;11.18;;;;;;;;;;5090612;28;20039;-43
2022/03/18 08:51:43;;;;;;;17.80;11.00;;;;;;;;;;5072739;28;20088;-41
2022/03/18 08:54:08;;;;;;;18.73;11.02;;;;;;;;;;5093795;28;20470;-42
2022/03/18 08:56:33;;;;;;;19.42;11.63;;;;;;;;;;5093804;28;20020;-46
2022/03/18 08:58:59;;;;;;;20.20;10.35;;;;;;;;;;5091703;28;20012;-42
2022/03/18 09:01:25;;;;;;;20.88;10.25;;;;;;;;;;5075507;28;20031;-42
2022/03/18 09:03:53;;;;;;;23.83;11.43;;;;;;;;;;5093431;28;20110;-41
2022/03/18 09:06:18;;;;;;;20.35;10.68;;;;;;;;;;5074515;28;20051;-40
2022/03/18 09:08:44;;;;;;;23.48;12.13;;;;;;;;;;5088960;28;20027;-42
2022/03/18 09:11:10;;;;;;;17.35;10.82;;;;;;;;;;5090919;28;20016;-40
2022/03/18 09:13:35;;;;;;;20.95;11.30;;;;;;;;;;5089401;28;20036;-41
2022/03/18 09:16:01;;;;;;;23.05;10.60;;;;;;;;;;5089771;28;20027;-39
2022/03/18 09:18:27;;;;;;;18.33;10.77;;;;;;;;;;5089414;28;20111;-44
2022/03/18 09:20:53;;;;;;;17.23;10.57;;;;;;;;;;5087144;28;20111;-43
2022/03/18 09:23:18;;;;;;;20.33;10.23;;;;;;;;;;5092560;28;20109;-42
2022/03/18 09:25:43;;;;;;;18.55;10.45;;;;;;;;;;5091831;28;20119;-42
2022/03/18 09:28:09;;;;;;;19.25;10.43;;;;;;;;;;5074691;28;20478;-42
2022/03/18 09:30:34;;;;;;;18.35;10.27;;;;;;;;;;5087769;28;20073;-43
2022/03/18 09:33:01;;;;;;;19.85;10.68;;;;;;;;;;5086676;28;20090;-43
2022/03/18 09:35:27;;;;;;;18.20;9.50;;;;;;;;;;5085988;28;20012;-47
2022/03/18 09:37:53;;;;;;;20.90;9.75;;;;;;;;;;5086849;28;20016;-45
2022/03/18 09:40:18;;;;;;;28.27;11.48;;;;;;;;;;5086319;28;20455;-42
2022/03/18 09:42:56;;;;;;;18.60;10.63;;;;;;;;;;5086329;28;20451;-44
2022/03/18 09:45:23;;;;;;;16.25;10.27;;;;;;;;;;5085223;28;20044;-43
2022/03/18 09:47:49;;;;;;;19.67;11.00;;;;;;;;;;5084752;28;20027;-42
2022/03/18 09:50:15;;;;;;;17.35;10.60;;;;;;;;;;5087878;28;20035;-39
2022/03/18 09:52:40;;;;;;;19.35;10.48;;;;;;;;;;5066474;28;20409;-43
2022/03/18 09:55:06;;;;;;;16.42;10.48;;;;;;;;;;5087620;28;20039;-39
2022/03/18 09:57:31;;;;;;;18.80;10.07;;;;;;;;;;5084707;28;20573;-36
2022/03/18 09:59:56;;;;;;;17.60;9.82;;;;;;;;;;5084852;28;20178;-36
2022/03/18 10:02:29;;;;;;;18.17;9.68;;;;;;;;;;5068189;28;20020;-42
2022/03/18 10:04:55;;;;;;;28.60;10.27;;;;;;;;;;5066876;28;20031;-37
2022/03/18 10:07:21;;;;;;;15.52;9.43;;;;;;;;;;5089975;28;20024;-38
2022/03/18 10:09:47;;;;;;;18.38;10.18;;;;;;;;;;5071340;28;20024;-38
2022/03/18 10:12:50;;;;;;;15.98;9.50;;;;;;;;;;5091082;28;20401;-41
2022/03/18 10:15:15;;;;;;;17.08;9.98;;;;;;;;;;4990360;28;20030;-39
2022/03/18 10:17:41;;;;;;;22.13;10.02;;;;;;;;;;5067087;28;20050;-38
2022/03/18 10:20:07;;;;;;;16.00;10.20;;;;;;;;;;5086730;28;20062;-37
2022/03/18 10:22:32;;;;;;;17.17;10.23;;;;;;;;;;5053672;28;20471;-38
2022/03/18 10:24:58;;;;;;;17.10;9.77;;;;;;;;;;5086989;28;20103;-38
2022/03/18 10:27:24;;;;;;;28.77;10.02;;;;;;;;;;5073834;28;20031;-38
2022/03/18 10:29:53;;;;;;;19.20;9.73;;;;;;;;;;5090052;28;20433;-37
2022/03/18 10:32:19;;;;;;;15.87;10.13;;;;;;;;;;5089813;28;20406;-38
2022/03/18 10:37:48;;;;;;;19.98;8.95;;;;;;;;;;5091717;28;20035;-37
2022/03/18 10:40:14;;;;;;;31.13;11.00;;;;;;;;;;5091504;28;20016;-37
2022/03/18 10:42:40;;;;;;;18.13;11.90;;;;;;;;;;5092343;28;20054;-37
2022/03/18 10:45:07;;;;;;;16.23;10.57;;;;;;;;;;5086562;28;20498;-41
2022/03/18 10:47:41;;;;;;;17.38;10.52;;;;;;;;;;5085669;28;20027;-40
2022/03/18 10:50:13;;;;;;;17.67;11.45;;;;;;;;;;5087619;28;20024;-40
2022/03/18 10:52:45;;;;;;;19.52;10.63;;;;;;;;;;5081634;28;20024;-44
2022/03/18 10:55:14;;;;;;;18.42;11.65;;;;;;;;;;5092969;28;20144;-41
2022/03/18 10:57:39;;;;;;;14.60;9.95;;;;;;;;;;5092723;28;20016;-42
2022/03/18 11:00:05;;;;;;;16.63;10.80;;;;;;;;;;5093070;28;20046;-43
2022/03/18 11:02:30;;;;;;;16.60;10.63;;;;;;;;;;5088576;28;20358;-43
2022/03/18 11:04:55;;;;;;;17.20;10.70;;;;;;;;;;5095198;28;20089;-42
2022/03/18 11:07:30;;;;;;;16.95;10.80;;;;;;;;;;5094396;28;20450;-42
2022/03/18 11:12:41;;;;;;;17.60;11.82;;;;;;;;;;5085531;28;20073;-39
2022/03/18 11:15:07;;;;;;;19.48;11.75;;;;;;;;;;5090501;28;20431;-41
2022/03/18 11:17:33;;;;;;;16.77;11.10;;;;;;;;;;5095019;28;20052;-41
2022/03/18 11:20:01;;;;;;;19.48;11.80;;;;;;;;;;5095532;28;20401;-41
2022/03/18 11:22:26;;;;;;;20.63;13.05;;;;;;;;;;5088392;28;20016;-41
2022/03/18 11:24:53;;;;;;;18.15;11.35;;;;;;;;;;5090860;28;20030;-41
2022/03/18 11:27:18;;;;;;;18.70;10.68;;;;;;;;;;5094896;28;20020;-40
2022/03/18 11:29:44;;;;;;;21.45;10.68;;;;;;;;;;5076746;28;20031;-41
2022/03/18 11:32:09;;;;;;;18.02;10.85;;;;;;;;;;5093898;28;20049;-41
2022/03/18 11:34:43;;;;;;;17.57;11.20;;;;;;;;;;5093880;28;20051;-42
2022/03/18 11:37:09;;;;;;;18.10;11.68;;;;;;;;;;5092005;28;20269;-41
2022/03/18 11:39:35;;;;;;;19.70;12.40;;;;;;;;;;5093217;28;20173;-39
2022/03/18 11:42:04;;;;;;;21.15;12.27;;;;;;;;;;5094818;28;20724;-42
2022/03/18 11:44:29;;;;;;;;;;;;;;;;;;5076854;28;20039;-40
2022/03/18 11:46:54;;;;;;;19.03;12.43;;;;;;;;;;5088114;28;20072;-42
2022/03/18 11:49:31;;;;;;;21.00;11.45;;;;;;;;;;5085657;28;20244;-41
2022/03/18 11:51:59;;;;;;;124.10;19.52;;;;;;;;;;5092169;28;20031;-40
2022/03/18 11:54:27;;;;;;;21.15;13.05;;;;;;;;;;5087523;28;20534;-39
2022/03/18 11:56:53;;;;;;;15.98;10.52;;;;;;;;;;5093133;28;20020;-41
2022/03/18 11:59:28;;;;;;;22.30;11.88;;;;;;;;;;5072919;28;20023;-41
2022/03/18 12:01:56;;;;;;;23.17;12.95;;;;;;;;;;5091210;28;20069;-40
2022/03/18 12:04:42;;;;;;;24.95;12.27;;;;;;;;;;5092964;28;20085;-40
2022/03/18 12:07:35;;;;;;;20.85;12.27;;;;;;;;;;5089272;28;20044;-41
2022/03/18 12:10:04;;;;;;;19.23;12.68;;;;;;;;;;5079006;28;20138;-41
2022/03/18 12:12:32;;;;;;;19.40;11.57;;;;;;;;;;5092644;28;20028;-41
2022/03/18 12:14:58;;;;;;;18.00;12.50;;;;;;;;;;5094023;28;20028;-45
2022/03/18 12:17:24;;;;;;;20.95;12.55;;;;;;;;;;5089333;28;20757;-42
2022/03/18 12:19:49;;;;;;;22.60;13.55;;;;;;;;;;5071895;28;20108;-41
2022/03/18 12:22:15;;;;;;;18.35;12.50;;;;;;;;;;5090289;28;20107;-41
2022/03/18 12:24:40;;;;;;;19.55;12.40;;;;;;;;;;5091652;28;20047;-41
2022/03/18 12:27:06;;;;;;;19.15;12.82;;;;;;;;;;5083561;28;20389;-41
2022/03/18 12:29:31;;;;;;;21.85;12.68;;;;;;;;;;5088868;28;20533;-43
2022/03/18 12:40:30;;;;;;;22.10;13.60;;;;;;;;;;5088623;28;20403;-44
2022/03/18 12:43:01;;;;;;;38.55;11.85;;;;;;;;;;5090297;28;20107;-42
2022/03/18 12:45:27;;;;;;;23.73;13.18;;;;;;;;;;5091221;28;20046;-40
2022/03/18 12:47:54;;;;;;;19.67;12.63;;;;;;;;;;5090010;28;20622;-41
2022/03/18 12:50:24;;;;;;;20.60;13.57;;;;;;;;;;5084903;28;20027;-41
2022/03/18 12:52:49;;;;;;;21.10;11.85;;;;;;;;;;5092254;28;20584;-42
2022/03/18 12:55:17;;;;;;;19.65;11.43;;;;;;;;;;5088964;28;20123;-42
2022/03/18 12:57:42;;;;;;;21.23;13.75;;;;;;;;;;5088864;28;20028;-42
2022/03/18 13:00:09;;;;;;;17.70;12.10;;;;;;;;;;5090355;28;20105;-41
2022/03/18 13:02:35;;;;;;;20.00;12.52;;;;;;;;;;5072961;28;20454;-42
2022/03/18 13:05:02;;;;;;;20.20;13.52;;;;;;;;;;5084683;28;20434;-40
2022/03/18 13:07:28;;;;;;;24.35;13.60;;;;;;;;;;5091800;28;20016;-41
2022/03/18 13:09:54;;;;;;;21.92;13.35;;;;;;;;;;5091403;28;20099;-41
2022/03/18 13:12:25;;;;;;;22.27;13.57;;;;;;;;;;5092980;28;20058;-40
2022/03/18 13:14:54;;;;;;;24.15;14.13;;;;;;;;;;5091060;28;20024;-43
2022/03/18 13:17:23;;;;;;;30.98;16.05;;;;;;;;;;5088714;28;20043;-43
2022/03/18 13:19:50;;;;;;;;;;;;;;;;;;5090818;28;20016;-43
2022/03/18 13:22:23;;;;;;;22.10;15.18;;;;;;;;;;5066952;28;20640;-42
2022/03/18 13:24:54;;;;;;;27.90;14.68;;;;;;;;;;5083220;28;20028;-43
2022/03/18 13:27:21;;;;;;;27.88;15.48;;;;;;;;;;5092384;28;20395;-43
2022/03/18 13:32:50;;;;;;;29.20;15.55;;;;;;;;;;5073585;28;20055;-42
2022/03/18 13:35:15;;;;;;;21.65;14.25;;;;;;;;;;5069463;28;20784;-44
2022/03/18 13:37:41;;;;;;;24.02;15.10;;;;;;;;;;5071774;28;20095;-44
2022/03/18 13:40:15;;;;;;;24.45;15.38;;;;;;;;;;5070796;28;20111;-43
2022/03/18 13:42:42;;;;;;;28.60;15.40;;;;;;;;;;5069487;28;20016;-46
2022/03/18 13:45:08;;;;;;;25.85;15.30;;;;;;;;;;5068110;28;20032;-43
2022/03/18 13:47:46;;;;;;;31.40;16.63;;;;;;;;;;5069506;28;20090;-41
2022/03/18 13:50:14;;;;;;;23.73;14.95;;;;;;;;;;5069599;28;20025;-41
2022/03/18 13:52:39;;;;;;;22.77;14.32;;;;;;;;;;5069680;28;20107;-42
2022/03/18 13:55:05;;;;;;;22.50;14.38;;;;;;;;;;5070125;28;20431;-43
2022/03/18 13:57:43;;;;;;;25.08;14.70;;;;;;;;;;5067495;28;20028;-42
2022/03/18 14:00:08;;;;;;;27.15;13.38;;;;;;;;;;5068404;28;20035;-41
2022/03/18 14:02:34;;;;;;;24.35;13.55;;;;;;;;;;5068847;28;20024;-42
2022/03/18 14:05:00;;;;;;;22.08;13.07;;;;;;;;;;5068450;28;20023;-45
2022/03/18 14:07:44;;;;;;;21.52;13.30;;;;;;;;;;5071578;28;20025;-41
2022/03/18 14:10:09;;;;;;;24.60;14.27;;;;;;;;;;5070835;28;20016;-43
2022/03/18 14:12:35;;;;;;;24.25;14.30;;;;;;;;;;5070008;28;20086;-44
2022/03/18 14:15:11;;;;;;;23.95;13.57;;;;;;;;;;5067560;28;20028;-45
2022/03/18 14:17:57;;;;;;;21.58;13.70;;;;;;;;;;5071430;28;20475;-42
2022/03/18 14:20:26;;;;;;;24.48;13.57;;;;;;;;;;5067209;28;20052;-47
2022/03/18 14:22:53;;;;;;;20.83;13.25;;;;;;;;;;5069988;28;20068;-43
2022/03/18 14:25:18;;;;;;;24.67;14.95;;;;;;;;;;5071732;28;20028;-44
2022/03/18 14:27:44;;;;;;;24.75;13.77;;;;;;;;;;5070703;28;20028;-46
2022/03/18 14:30:11;;;;;;;139.40;18.20;;;;;;;;;;5069396;28;20025;-42
2022/03/18 14:32:37;;;;;;;22.95;14.80;;;;;;;;;;5082425;28;20511;-45
2022/03/18 14:35:04;;;;;;;29.23;17.08;;;;;;;;;;5089270;28;20051;-42
2022/03/18 14:37:34;;;;;;;29.80;15.15;;;;;;;;;;5090617;28;20411;-41
2022/03/18 14:40:00;;;;;;;26.35;14.23;;;;;;;;;;5085629;28;20016;-41
2022/03/18 14:42:26;;;;;;;27.65;15.57;;;;;;;;;;5091323;28;20445;-42
2022/03/18 14:44:51;;;;;;;26.50;15.80;;;;;;;;;;5091554;28;20028;-42
2022/03/18 14:47:17;;;;;;;21.95;14.07;;;;;;;;;;5092638;28;20024;-41
2022/03/18 14:49:42;;;;;;;25.60;14.30;;;;;;;;;;5074641;28;20030;-41
2022/03/18 14:52:07;;;;;;;22.80;15.18;;;;;;;;;;5074686;28;20382;-42